Flight Track Log - Related Links

Times and Time Zones

All times are in EDT time to prevent confusion due to time zone crossing. See the EJA930 flight status page for this flight to view local times or setup timezone preferences in your user account.

Time Position Orientation Groundspeed Altitude Reporting Facility
EDT Latitude Longitude Course Direction KTS MPH feet Rate Location/Type
Tue 07:12:54 AM 33.5531 -86.7733 239° Southwest 176 203 1,700  Level Atlanta Center
Tue 07:13:42 AM 33.5311 -86.8175 239° Southwest 204 235 4,200 3,266 Climbing Atlanta Center
Tue 07:14:13 AM 33.5017 -86.8314 201° Southwest 216 249 6,000 2,739 Climbing Atlanta Center
Tue 07:15:14 AM 33.4739 -86.7683 118° Southeast 264 304 8,400 1,933 Climbing Atlanta Center
Tue 07:16:42 AM 33.4856 -86.6092 85° East 311 358 10,800 1,662 Climbing Atlanta Center
Tue 07:17:42 AM 33.4964 -86.4975 83° East 324 373 12,500 1,800 Climbing Atlanta Center
Tue 07:18:42 AM 33.5047 -86.3881 85° East 339 390 14,400 2,000 Climbing Atlanta Center
Tue 07:19:42 AM 33.5131 -86.2686 85° East 354 407 16,500 1,800 Climbing Atlanta Center
Tue 07:20:42 AM 33.5217 -86.1469 85° East 359 413 18,000 1,450 Climbing Atlanta Center
Tue 07:21:42 AM 33.5300 -86.0250 85° East 364 419 19,400 1,250 Climbing Atlanta Center
Tue 07:22:42 AM 33.5403 -85.8956 85° East 377 434 20,500 1,350 Climbing Atlanta Center
Tue 07:23:42 AM 33.5508 -85.7464 85° East 393 452 22,100 1,600 Climbing Atlanta Center
Tue 07:24:42 AM 33.5589 -85.6094 86° East 404 465 23,700 1,600 Climbing Atlanta Center
Tue 07:25:42 AM 33.5669 -85.4675 86° East 421 484 25,300 1,500 Climbing Atlanta Center
Tue 07:26:42 AM 33.5767 -85.3228 85° East 429 494 26,700 1,350 Climbing Atlanta Center
Tue 07:27:42 AM 33.5844 -85.1758 86° East 434 499 28,000 1,300 Climbing Atlanta Center
Tue 07:28:42 AM 33.5942 -85.0239 86° East 450 518 29,300 1,150 Climbing Atlanta Center
Tue 07:29:42 AM 33.6036 -84.8844 85° East 460 529 30,300 1,200 Climbing Atlanta Center
Tue 07:30:42 AM 33.6839 -84.7353 57° Northeast 455 524 31,700 1,250 Climbing Atlanta Center
Tue 07:31:42 AM 33.7928 -84.6461 34° Northeast 443 510 32,800 1,150 Climbing Atlanta Center
Tue 07:32:42 AM 33.9081 -84.5544 33° Northeast 464 534 34,000 1,050 Climbing Atlanta Center
Tue 07:33:42 AM 34.0128 -84.4572 38° Northeast 476 548 34,900 1,500 Climbing Atlanta Center
Tue 07:34:42 AM 34.1467 -84.3700 28° Northeast 507 583 37,000 1,050 Climbing Atlanta Center
Tue 07:35:42 AM 34.2678 -84.2750 33° Northeast 525 604 37,000  Level Atlanta Center
Tue 07:36:42 AM 34.3869 -84.1647 37° Northeast 530 610 37,000  Level Atlanta Center
Tue 07:37:42 AM 34.4975 -84.0389 43° Northeast 530 610 37,000  Level Atlanta Center
Tue 07:38:42 AM 34.5936 -83.9278 44° Northeast 540 621 37,000  Level Atlanta Center
Tue 07:39:42 AM 34.7061 -83.8039 42° Northeast 540 621 37,000  Level Atlanta Center
Tue 07:40:42 AM 34.8164 -83.6819 42° Northeast 535 616 37,000  Level Atlanta Center
Tue 07:41:42 AM 34.9517 -83.5700 34° Northeast 535 616 37,000  Level Atlanta Center
Tue 07:42:42 AM 35.0619 -83.4781 34° Northeast 530 610 37,000  Level Atlanta Center
Tue 07:43:42 AM 35.2011 -83.3653 34° Northeast 531 611 37,000  Level Atlanta Center
Tue 07:44:42 AM 35.3256 -83.2622 34° Northeast 531 611 37,000  Level Atlanta Center
Tue 07:45:42 AM 35.4458 -83.1567 36° Northeast 531 611 37,000  Level Atlanta Center
Tue 07:46:42 AM 35.5683 -83.0533 34° Northeast 531 611 37,000  Level Atlanta Center
Tue 07:47:42 AM 35.6925 -82.9494 34° Northeast 531 611 37,000  Level Atlanta Center
Tue 07:48:42 AM 35.8147 -82.8453 35° Northeast 531 611 37,000  Level Atlanta Center
Tue 07:49:42 AM 35.9367 -82.7411 35° Northeast 531 611 37,000  Level Atlanta Center
Tue 07:50:42 AM 36.0586 -82.6364 35° Northeast 531 611 37,000  Level Atlanta Center
Tue 07:51:42 AM 36.1825 -82.5339 34° Northeast 531 611 37,000  Level Atlanta Center
Tue 07:52:42 AM 36.3042 -82.4286 35° Northeast 531 611 37,000  Level Atlanta Center
Tue 07:53:42 AM 36.4239 -82.3228 35° Northeast 531 611 37,000  Level Atlanta Center
Tue 07:54:42 AM 36.5475 -82.2169 35° Northeast 531 611 37,000  Level Atlanta Center
Tue 07:55:42 AM 36.6689 -82.1106 35° Northeast 531 611 37,000  Level Atlanta Center
Tue 07:57:14 AM 36.8550 -81.9497 35° Northeast 541 623 37,000  Level Indianapolis Center
Tue 07:58:16 AM 36.9778 -81.8433 35° Northeast 538 619 37,000  Level Indianapolis Center
Tue 07:59:18 AM 37.0975 -81.7361 36° Northeast 532 612 37,000  Level Indianapolis Center
Tue 08:00:19 AM 37.2203 -81.6283 35° Northeast 535 616 37,000  Level Indianapolis Center
Tue 08:01:21 AM 37.3414 -81.5200 35° Northeast 534 615 37,000  Level Indianapolis Center
Tue 08:02:22 AM 37.4628 -81.4125 35° Northeast 535 616 37,000  Level Indianapolis Center
Tue 08:03:24 AM 37.6036 -81.2850 36° Northeast 533 613 37,000  Level Indianapolis Center
Tue 08:04:26 AM 37.7228 -81.1781 35° Northeast 537 618 37,000  Level Indianapolis Center
Tue 08:05:27 AM 37.8261 -81.0614 42° Northeast 543 625 37,000  Level Indianapolis Center
Tue 08:06:29 AM 37.9436 -80.8917 49° Northeast 539 620 37,000  Level Indianapolis Center
Tue 08:07:31 AM 38.0417 -80.7500 49° Northeast 538 619 37,000  Level Indianapolis Center
Tue 08:08:32 AM 38.1269 -80.5981 54° Northeast 541 623 37,000  Level Indianapolis Center
Tue 08:09:23 AM 38.1681 -80.4675 68° East 518 596 37,000 -108 Level Washington Center
Tue 08:10:23 AM 38.2189 -80.2936 70° East 518 596 36,800 -900 Descending Washington Center
Tue 08:11:23 AM 38.2692 -80.1194 70° East 524 603 35,200 -1,785 Descending Washington Center
Tue 08:12:24 AM 38.3264 -79.9272 69° East 519 597 33,200 -1,866 Descending Washington Center
Tue 08:13:22 AM 38.3806 -79.7503 69° East 519 597 31,500 -1,563 Descending Washington Center
Tue 08:14:23 AM 38.4325 -79.5756 69° East 519 597 30,100 -1,240 Descending Washington Center
Tue 08:15:23 AM 38.4861 -79.4006 69° East 519 597 29,000 -545 Descending Washington Center
Tue 08:16:24 AM 38.5328 -79.2411 69° East 519 597 29,000  Level Washington Center
Tue 08:17:22 AM 38.5886 -79.0500 69° East 519 597 29,000  Level Washington Center
Tue 08:18:22 AM 38.6858 -78.9242 45° Northeast 493 567 29,000  Level Washington Center
Tue 08:19:22 AM 38.8278 -78.9172 North 448 516 29,000  Level Washington Center
Tue 08:20:24 AM 38.9461 -78.9361 353° North 461 531 29,000  Level Washington Center
Tue 08:21:24 AM 39.0892 -78.9614 352° North 476 548 29,000  Level Washington Center
Tue 08:22:21 AM 39.2283 -78.9114 16° North 493 567 29,000 -508 Level Washington Center
Tue 08:23:22 AM 39.3236 -78.7736 48° Northeast 480 552 28,000 -1,438 Descending Washington Center
Tue 08:24:22 AM 39.3925 -78.6047 62° Northeast 477 549 26,100 -1,884 Descending Washington Center
Tue 08:25:23 AM 39.4592 -78.4433 62° Northeast 490 564 24,200 -3,492 Descending Washington Center
Tue 08:26:24 AM 39.5231 -78.2844 62° Northeast 490 564 19,000 -1,966 Descending Washington Center
Tue 08:27:22 AM 39.5847 -78.1308 62° Northeast 484 557 20,300  Climbing Washington Center
Tue 08:29:16 AM 39.7139 -77.8422 60° Northeast 468 539 19,000 -446 Descending New York Center
Tue 08:30:17 AM 39.8000 -77.7239 47° Northeast 447 514 19,000  Level New York Center
Tue 08:31:17 AM 39.8881 -77.6108 45° Northeast 447 514 19,000  Level New York Center
Tue 08:32:15 AM 39.9672 -77.5047 46° Northeast 447 514 19,000  Level New York Center
Tue 08:33:15 AM 40.0583 -77.3669 49° Northeast 452 520 19,000  Level New York Center
Tue 08:34:16 AM 40.1075 -77.2333 64° Northeast 447 514 19,000  Level New York Center
Tue 08:35:17 AM 40.1625 -77.0644 67° East 458 527 19,000  Level New York Center
Tue 08:36:15 AM 40.2050 -76.9269 68° East 464 534 19,000 -756 Level New York Center
Tue 08:37:16 AM 40.2528 -76.7706 68° East 464 534 17,500 -1,721 Descending New York Center
Tue 08:38:17 AM 40.3050 -76.6036 68° East 459 528 15,500 -1,800 Descending New York Center
Tue 08:39:16 AM 40.3497 -76.4550 68° East 452 520 13,900 -1,664 Descending New York Center
Tue 08:40:16 AM 40.3942 -76.3086 68° East 441 507 12,200 -1,513 Descending New York Center
Tue 08:41:15 AM 40.4361 -76.1703 68° East 422 486 10,900 -1,050 Descending New York Center
Tue 08:42:16 AM 40.4678 -76.0661 68° East 373 429 10,100 -1,328 Descending New York Center
Tue 08:43:17 AM 40.5022 -75.9514 68° East 318 366 8,200 -1,835 Descending New York Center
Tue 08:44:17 AM 40.5439 -75.8536 61° Northeast 298 343 6,400 -1,408 Descending New York Center
Tue 08:46:16 AM 40.6119 -75.6753 63° Northeast 284 327 4,000 -967 Descending New York Center
Tue 08:47:17 AM 40.6672 -75.5944 48° Northeast 270 311 3,500 -504 Descending New York Center
Tue 08:48:15 AM 40.7014 -75.5231 58° Northeast 265 305 3,000 -356 Descending New York Center
Tue 08:49:15 AM 40.7217 -75.4342 73° East 244 281 2,800 -744 Descending New York Center
Tue 08:50:16 AM 40.6919 -75.3939 134° Southeast 164 189 1,500 -639 Descending New York Center
Tue 08:51:17 AM 40.6794 -75.3436 108° East 164 189 1,500 4,790 Level New York Center
Tue 08:52:15 AM 40.6669 -75.2881 107° East 164 189 11,000 4,831 Climbing New York Center
Tue 08:53:15 AM 40.6522 -75.2325 109° East 164 189 11,000  Level New York Center
Tue 08:54:17 AM 40.6397 -75.1769 106° East 164 189 11,000  Level New York Center
Tue 08:55:15 AM 40.6397 -75.1769 303° West 164 189 11,000  Level New York Center

Login

Don't have an account? Register now (free) for customized features, flight alerts, and more!